createdAt,value
2019-05-23T00:00:54.802Z,101889.09
2019-05-23T00:03:27.450Z,101896.60
2019-05-23T00:06:01.767Z,101897.59
2019-05-23T00:08:32.410Z,101893.12
2019-05-23T00:11:22.021Z,101896.60
2019-05-23T00:14:01.119Z,101886.95
2019-05-23T00:16:31.861Z,101897.10
2019-05-23T00:19:02.286Z,101890.66
2019-05-23T00:21:33.338Z,101894.13
2019-05-23T00:24:02.915Z,101884.02
2019-05-23T00:26:32.643Z,101889.44
2019-05-23T00:29:10.421Z,101888.59
2019-05-23T00:31:45.726Z,101881.77
2019-05-23T00:34:15.468Z,101890.66
2019-05-23T00:36:46.291Z,101889.52
2019-05-23T00:39:16.948Z,101890.05
2019-05-23T00:41:48.911Z,101877.13
2019-05-23T00:44:19.295Z,101882.27
2019-05-23T00:46:50.138Z,101882.27
2019-05-23T00:49:22.003Z,101885.20
2019-05-23T00:51:51.557Z,101888.59
2019-05-23T00:54:21.653Z,101890.39
2019-05-23T00:56:51.799Z,101881.85
2019-05-23T00:59:27.218Z,101882.61
2019-05-23T01:01:53.835Z,101878.53
2019-05-23T01:04:24.241Z,101881.80
2019-05-23T01:06:54.139Z,101881.80
2019-05-23T01:09:25.359Z,101878.68
2019-05-23T01:11:55.604Z,101880.73
2019-05-23T01:14:26.244Z,101887.53
2019-05-23T01:16:55.687Z,101871.14
2019-05-23T01:19:25.481Z,101885.05
2019-05-23T01:22:03.034Z,101884.98
2019-05-23T01:24:36.315Z,101883.19
2019-05-23T01:27:07.432Z,101879.79
2019-05-23T01:29:49.672Z,101888.67
2019-05-23T01:32:43.965Z,101881.58
2019-05-23T01:35:17.371Z,101883.22
2019-05-23T01:37:48.757Z,101879.86
2019-05-23T01:40:18.630Z,101879.40
2019-05-23T01:42:48.130Z,101881.99
2019-05-23T01:45:19.431Z,101878.34
2019-05-23T01:47:50.503Z,101875.33
2019-05-23T01:50:23.922Z,101871.02
2019-05-23T01:52:54.256Z,101872.95
2019-05-23T01:55:24.607Z,101872.61
2019-05-23T01:57:54.795Z,101874.33
2019-05-23T02:00:27.961Z,101881.22
2019-05-23T02:02:57.735Z,101873.06
2019-05-23T02:05:28.224Z,101873.06
2019-05-23T02:07:57.686Z,101878.55
2019-05-23T02:10:27.880Z,101871.22
2019-05-23T02:12:57.975Z,101870.00
2019-05-23T02:15:28.462Z,101869.12
2019-05-23T02:17:58.302Z,101863.34
2019-05-23T02:20:29.353Z,101863.68
2019-05-23T02:23:00.065Z,101865.75
2019-05-23T02:25:30.462Z,101867.95
2019-05-23T02:28:00.247Z,101864.48
2019-05-23T02:30:34.878Z,101860.48
2019-05-23T02:33:02.736Z,101860.56
2019-05-23T02:35:32.537Z,101851.80
2019-05-23T02:38:20.995Z,101849.09
2019-05-23T02:41:08.033Z,101849.42
2019-05-23T02:43:39.385Z,101849.42
2019-05-23T02:46:19.116Z,101841.34
2019-05-23T02:48:51.189Z,101844.93
2019-05-23T02:51:26.140Z,101840.34
2019-05-23T02:53:57.323Z,101842.74
2019-05-23T02:56:28.413Z,101847.20
2019-05-23T02:59:10.003Z,101847.41
2019-05-23T03:02:15.256Z,101850.95
2019-05-23T03:04:47.648Z,101850.68
2019-05-23T03:07:21.839Z,101844.13
2019-05-23T03:09:51.988Z,101844.09
2019-05-23T03:12:25.186Z,101846.06
2019-05-23T03:14:53.587Z,101838.03
2019-05-23T03:17:25.264Z,101842.94
2019-05-23T03:19:58.018Z,101843.28
2019-05-23T03:22:36.710Z,101840.55
2019-05-23T03:25:10.592Z,101843.36
2019-05-23T03:27:44.927Z,101842.87
2019-05-23T03:30:21.291Z,101840.73
2019-05-23T03:32:54.642Z,101843.36
2019-05-23T03:35:38.879Z,101846.06
2019-05-23T03:38:10.677Z,101841.61
2019-05-23T03:40:41.369Z,101846.41
2019-05-23T03:43:11.786Z,101846.48
2019-05-23T03:45:47.677Z,101839.29
2019-05-23T03:48:19.022Z,101841.13
2019-05-23T03:50:48.887Z,101844.00
2019-05-23T03:53:20.120Z,101841.22
2019-05-23T03:55:50.117Z,101841.34
2019-05-23T03:58:21.339Z,101841.27
2019-05-23T04:00:56.963Z,101846.13
2019-05-23T04:03:26.737Z,101844.67
2019-05-23T04:05:59.865Z,101843.61
2019-05-23T04:08:30.385Z,101834.92
2019-05-23T04:11:00.540Z,101835.20
2019-05-23T04:13:30.490Z,101838.24
2019-05-23T04:16:00.598Z,101837.91
2019-05-23T04:18:30.514Z,101837.94
2019-05-23T04:21:00.032Z,101842.28
2019-05-23T04:23:30.662Z,101846.85
2019-05-23T04:26:00.264Z,101850.77
2019-05-23T04:28:29.859Z,101848.73
2019-05-23T04:30:59.572Z,101850.55
2019-05-23T04:33:29.219Z,101855.53
2019-05-23T04:35:59.049Z,101854.63
2019-05-23T04:38:28.778Z,101853.84
2019-05-23T04:40:58.176Z,101857.48
2019-05-23T04:43:27.624Z,101848.48
2019-05-23T04:45:57.675Z,101857.54
2019-05-23T04:48:27.244Z,101863.05
2019-05-23T04:50:59.955Z,101850.41
2019-05-23T04:53:28.972Z,101859.38
2019-05-23T04:55:58.892Z,101857.88
2019-05-23T04:58:28.315Z,101856.96
2019-05-23T05:00:57.980Z,101857.84
2019-05-23T05:03:27.847Z,101853.20
2019-05-23T05:05:57.351Z,101860.75
2019-05-23T05:08:26.836Z,101859.58
2019-05-23T05:10:56.494Z,101859.58
2019-05-23T05:13:25.944Z,101865.72
2019-05-23T05:15:55.890Z,101870.59
2019-05-23T05:18:25.508Z,101870.59
2019-05-23T05:20:54.942Z,101880.88
2019-05-23T05:23:24.909Z,101874.98
2019-05-23T05:25:54.302Z,101882.09
2019-05-23T05:28:23.761Z,101886.02
2019-05-23T05:30:53.972Z,101889.48
2019-05-23T05:33:23.410Z,101891.20
2019-05-23T05:35:52.962Z,101892.30
2019-05-23T05:38:22.934Z,101889.78
2019-05-23T05:40:52.699Z,101892.70
2019-05-23T05:43:22.298Z,101893.87
2019-05-23T05:45:51.960Z,101898.45
2019-05-23T05:48:21.410Z,101895.55
2019-05-23T05:50:51.074Z,101896.73
2019-05-23T05:53:20.661Z,101903.57
2019-05-23T05:55:50.085Z,101901.78
2019-05-23T05:58:19.602Z,101898.61
2019-05-23T06:01:08.321Z,101898.76
2019-05-23T06:03:39.188Z,101893.18
2019-05-23T06:06:29.043Z,101892.28
2019-05-23T06:09:01.001Z,101893.76
2019-05-23T06:11:31.366Z,101893.30
2019-05-23T06:14:01.433Z,101898.33
2019-05-23T06:16:31.856Z,101908.45
2019-05-23T06:19:01.401Z,101903.80
2019-05-23T06:21:31.338Z,101903.14
2019-05-23T06:24:01.100Z,101903.23
2019-05-23T06:26:31.218Z,101899.05
2019-05-23T06:29:00.817Z,101897.41
2019-05-23T06:31:31.900Z,101897.83
2019-05-23T06:34:01.429Z,101887.25
2019-05-23T06:36:31.594Z,101892.47
2019-05-23T06:39:01.061Z,101890.23
2019-05-23T06:41:31.208Z,101883.99
2019-05-23T06:44:00.716Z,101881.39
2019-05-23T06:46:30.461Z,101886.19
2019-05-23T06:49:00.230Z,101885.23
2019-05-23T06:51:31.272Z,101887.03
2019-05-23T06:54:02.152Z,101877.02
2019-05-23T06:56:32.230Z,101872.91
2019-05-23T06:59:01.970Z,101879.82
2019-05-23T07:01:34.068Z,101879.17
2019-05-23T07:04:03.655Z,101875.78
2019-05-23T07:06:33.122Z,101885.58
2019-05-23T07:09:02.955Z,101887.27
2019-05-23T07:11:32.371Z,101883.03
2019-05-23T07:14:01.981Z,101888.02
2019-05-23T07:16:33.030Z,101874.87
2019-05-23T07:19:02.692Z,101881.37
2019-05-23T07:21:32.389Z,101877.74
2019-05-23T07:24:01.850Z,101874.78
2019-05-23T07:26:31.606Z,101879.69
2019-05-23T07:29:01.669Z,101883.98
2019-05-23T07:31:31.546Z,101882.36
2019-05-23T07:34:02.648Z,101875.29
2019-05-23T07:36:32.795Z,101884.44
2019-05-23T07:39:02.265Z,101884.78
2019-05-23T07:41:32.020Z,101880.22
2019-05-23T07:44:01.600Z,101877.81
2019-05-23T07:46:32.191Z,101883.56
2019-05-23T07:49:02.284Z,101883.56
2019-05-23T07:51:31.802Z,101882.95
2019-05-23T07:54:19.935Z,101879.24
2019-05-23T07:56:49.326Z,101880.16
2019-05-23T07:59:18.929Z,101886.16
2019-05-23T08:01:53.639Z,101870.91
2019-05-23T08:04:23.825Z,101870.41
2019-05-23T08:06:54.148Z,101866.98
2019-05-23T08:09:24.383Z,101861.34
2019-05-23T08:11:54.042Z,101860.79
2019-05-23T08:14:23.659Z,101870.72
2019-05-23T08:16:54.036Z,101871.84
2019-05-23T08:19:23.863Z,101871.91
2019-05-23T08:21:53.756Z,101872.81
2019-05-23T08:24:23.233Z,101871.77
2019-05-23T08:26:53.722Z,101881.35
2019-05-23T08:29:26.381Z,101870.19
2019-05-23T08:31:55.455Z,101872.97
2019-05-23T08:34:40.594Z,101866.34
2019-05-23T08:36:57.369Z,101865.27
2019-05-23T08:39:27.861Z,101868.18
2019-05-23T08:41:57.600Z,101863.59
2019-05-23T08:44:27.390Z,101854.17
2019-05-23T08:47:00.312Z,101861.87
2019-05-23T08:49:29.950Z,101865.96
2019-05-23T08:51:59.718Z,101867.63
2019-05-23T08:54:30.121Z,101864.55
2019-05-23T08:56:59.589Z,101868.11
2019-05-23T08:59:30.027Z,101863.44
2019-05-23T09:02:00.027Z,101860.30
2019-05-23T09:04:33.297Z,101856.41
2019-05-23T09:07:04.768Z,101858.19
2019-05-23T09:09:34.836Z,101862.05
2019-05-23T09:12:05.061Z,101864.16
2019-05-23T09:14:35.630Z,101861.25
2019-05-23T09:17:06.119Z,101855.48
2019-05-23T09:19:35.630Z,101845.67
2019-05-23T09:22:05.212Z,101845.87
2019-05-23T09:24:34.914Z,101852.70
2019-05-23T09:27:04.752Z,101856.91
2019-05-23T09:29:34.258Z,101839.31
2019-05-23T09:32:04.416Z,101835.66
2019-05-23T09:34:36.833Z,101834.06
2019-05-23T09:37:08.262Z,101841.97
2019-05-23T09:39:38.172Z,101836.23
2019-05-23T09:42:11.750Z,101843.63
2019-05-23T09:44:38.946Z,101841.59
2019-05-23T09:47:08.638Z,101841.59
2019-05-23T09:49:38.142Z,101842.58
2019-05-23T09:52:08.326Z,101839.30
2019-05-23T09:54:38.245Z,101841.38
2019-05-23T09:57:08.951Z,101831.27
2019-05-23T09:59:39.910Z,101836.31
2019-05-23T10:02:09.863Z,101838.32
2019-05-23T10:04:39.326Z,101838.32
2019-05-23T10:07:08.788Z,101833.75
2019-05-23T10:09:38.280Z,101835.16
2019-05-23T10:12:08.785Z,101829.42
2019-05-23T10:14:39.510Z,101821.92
2019-05-23T10:17:09.283Z,101819.69
2019-05-23T10:19:39.769Z,101828.21
2019-05-23T10:22:09.242Z,101829.94
2019-05-23T10:24:39.170Z,101819.33
2019-05-23T10:27:10.343Z,101828.19
2019-05-23T10:29:39.883Z,101823.27
2019-05-23T10:32:11.086Z,101817.52
2019-05-23T10:34:40.531Z,101816.30
2019-05-23T10:37:12.393Z,101817.79
2019-05-23T10:39:46.897Z,101816.02
2019-05-23T10:42:16.811Z,101810.08
2019-05-23T10:44:46.350Z,101806.63
2019-05-23T10:47:16.078Z,101801.14
2019-05-23T10:49:45.874Z,101807.68
2019-05-23T10:52:15.408Z,101804.78
2019-05-23T10:54:45.143Z,101801.72
2019-05-23T10:57:14.800Z,101798.27
2019-05-23T10:59:44.306Z,101796.93
2019-05-23T11:02:14.729Z,101793.53
2019-05-23T11:04:44.238Z,101790.55
2019-05-23T11:07:14.467Z,101795.77
2019-05-23T11:09:45.035Z,101792.70
2019-05-23T11:12:14.669Z,101789.98
2019-05-23T11:14:46.125Z,101785.34
2019-05-23T11:17:15.879Z,101779.52
2019-05-23T11:19:45.332Z,101778.42
2019-05-23T11:22:14.941Z,101792.80
2019-05-23T11:24:44.523Z,101791.50
2019-05-23T11:27:14.071Z,101780.84
2019-05-23T11:29:43.867Z,101778.70
2019-05-23T11:32:13.853Z,101781.97
2019-05-23T11:34:43.295Z,101770.38
2019-05-23T11:37:12.712Z,101776.36
2019-05-23T11:39:49.708Z,101772.55
2019-05-23T11:42:13.811Z,101768.81
2019-05-23T11:44:43.335Z,101770.98
2019-05-23T11:47:13.415Z,101763.72
2019-05-23T11:49:44.288Z,101766.23
2019-05-23T11:52:14.627Z,101762.21
2019-05-23T11:54:45.168Z,101769.04
2019-05-23T11:57:15.642Z,101761.81
2019-05-23T11:59:45.163Z,101763.75
2019-05-23T12:02:32.346Z,101760.19
2019-05-23T12:05:04.462Z,101757.37
2019-05-23T12:07:34.740Z,101757.21
2019-05-23T12:10:04.797Z,101753.88
2019-05-23T12:12:34.194Z,101746.23
2019-05-23T12:15:05.266Z,101750.43
2019-05-23T12:17:35.251Z,101753.23
2019-05-23T12:20:05.985Z,101744.72
2019-05-23T12:22:37.010Z,101748.86
2019-05-23T12:25:21.176Z,101746.60
2019-05-23T12:27:39.589Z,101737.55
2019-05-23T12:30:13.006Z,101733.73
2019-05-23T12:32:42.526Z,101740.14
2019-05-23T12:35:12.615Z,101731.12
2019-05-23T12:37:42.109Z,101729.88
2019-05-23T12:40:12.976Z,101728.20
2019-05-23T12:42:42.393Z,101725.23
2019-05-23T12:47:54.923Z,101720.41
2019-05-23T12:50:27.685Z,101709.48
2019-05-23T12:52:57.334Z,101713.28
2019-05-23T12:55:27.345Z,101717.64
2019-05-23T12:57:56.819Z,101715.95
2019-05-23T13:00:45.359Z,101712.63
2019-05-23T13:03:15.765Z,101705.12
2019-05-23T13:05:45.372Z,101700.50
2019-05-23T13:08:15.292Z,101697.46
2019-05-23T13:10:44.852Z,101691.47
2019-05-23T13:13:14.627Z,101696.20
2019-05-23T13:15:44.358Z,101689.45
2019-05-23T13:18:14.253Z,101688.70
2019-05-23T13:20:44.080Z,101681.61
2019-05-23T13:23:20.827Z,101683.03
2019-05-23T13:25:45.538Z,101685.84
2019-05-23T13:28:15.152Z,101693.30
2019-05-23T13:30:44.683Z,101694.23
2019-05-23T13:33:14.423Z,101683.47
2019-05-23T13:35:45.815Z,101679.72
2019-05-23T13:38:15.933Z,101677.59
2019-05-23T13:40:45.502Z,101681.63
2019-05-23T13:43:14.970Z,101679.23
2019-05-23T13:45:44.959Z,101683.09
2019-05-23T13:48:16.396Z,101676.72
2019-05-23T13:50:46.156Z,101667.91
2019-05-23T13:53:18.889Z,101672.03
2019-05-23T13:55:48.456Z,101670.45
2019-05-23T13:58:17.977Z,101668.43
2019-05-23T14:00:48.089Z,101669.90
2019-05-23T14:03:18.221Z,101663.42
2019-05-23T14:05:47.846Z,101665.28
2019-05-23T14:08:19.338Z,101660.12
2019-05-23T14:10:48.712Z,101659.84
2019-05-23T14:13:18.217Z,101656.84
2019-05-23T14:15:49.127Z,101657.39
2019-05-23T14:18:20.179Z,101656.86
2019-05-23T14:20:50.117Z,101653.65
2019-05-23T14:23:24.992Z,101656.58
2019-05-23T14:25:55.007Z,101639.72
2019-05-23T14:28:24.672Z,101640.80
2019-05-23T14:31:28.465Z,101644.81
2019-05-23T14:34:03.598Z,101643.50
2019-05-23T14:36:50.940Z,101640.08
2019-05-23T14:39:32.453Z,101636.32
2019-05-23T14:42:10.728Z,101636.95
2019-05-23T14:44:40.184Z,101629.48
2019-05-23T14:47:27.877Z,101641.91
2019-05-23T14:50:19.143Z,101630.59
2019-05-23T14:52:50.608Z,101640.66
2019-05-23T14:55:20.193Z,101628.41
2019-05-23T14:57:49.697Z,101625.75
2019-05-23T15:00:19.768Z,101623.45
2019-05-23T15:02:49.261Z,101628.85
2019-05-23T15:05:18.827Z,101621.06
2019-05-23T15:07:48.875Z,101614.84
2019-05-23T15:10:20.032Z,101614.82
2019-05-23T15:12:49.506Z,101614.33
2019-05-23T15:15:19.129Z,101611.44
2019-05-23T15:17:48.681Z,101610.78
2019-05-23T15:20:19.728Z,101610.94
2019-05-23T15:22:49.186Z,101608.67
2019-05-23T15:25:18.814Z,101616.48
2019-05-23T15:27:48.277Z,101604.11
2019-05-23T15:30:18.583Z,101604.22
2019-05-23T15:32:48.058Z,101595.28
2019-05-23T15:35:17.931Z,101593.09
2019-05-23T15:37:47.725Z,101601.05
2019-05-23T15:40:17.279Z,101590.29
2019-05-23T15:42:47.076Z,101591.85
2019-05-23T15:45:16.937Z,101587.77
2019-05-23T15:47:46.497Z,101586.81
2019-05-23T15:50:17.687Z,101583.14
2019-05-23T15:52:55.320Z,101586.05
2019-05-23T15:55:42.909Z,101585.89
2019-05-23T15:58:23.451Z,101583.41
2019-05-23T16:01:04.107Z,101572.97
2019-05-23T16:03:39.007Z,101572.97
2019-05-23T16:06:11.164Z,101568.19
2019-05-23T16:08:42.902Z,101567.36
2019-05-23T16:11:17.133Z,101551.50
2019-05-23T16:13:44.406Z,101551.50
2019-05-23T16:16:13.959Z,101553.32
2019-05-23T16:18:44.294Z,101545.95
2019-05-23T16:21:14.607Z,101549.45
2019-05-23T16:23:44.051Z,101546.39
2019-05-23T16:26:13.760Z,101545.83
2019-05-23T16:28:43.201Z,101548.13
2019-05-23T16:31:12.613Z,101543.22
2019-05-23T16:33:42.110Z,101540.64
2019-05-23T16:36:11.578Z,101536.55
2019-05-23T16:38:41.118Z,101536.55
2019-05-23T16:41:11.525Z,101540.50
2019-05-23T16:43:41.391Z,101539.15
2019-05-23T16:46:11.664Z,101535.90
2019-05-23T16:48:41.442Z,101533.75
2019-05-23T16:51:10.912Z,101544.01
2019-05-23T16:53:40.930Z,101538.72
2019-05-23T16:56:18.885Z,101538.80
2019-05-23T16:59:03.204Z,101541.52
2019-05-23T17:01:57.040Z,101533.67
2019-05-23T17:04:37.857Z,101537.36
2019-05-23T17:07:19.293Z,101532.41
2019-05-23T17:10:08.639Z,101539.25
2019-05-23T17:12:49.891Z,101533.44
2019-05-23T17:15:56.660Z,101536.69
2019-05-23T17:19:03.747Z,101527.62
2019-05-23T17:21:55.369Z,101529.34
2019-05-23T17:24:49.787Z,101524.30
2019-05-23T17:27:28.520Z,101521.34
2019-05-23T17:30:17.432Z,101515.31
2019-05-23T17:32:47.153Z,101519.83
2019-05-23T17:35:16.745Z,101514.09
2019-05-23T17:37:46.639Z,101513.38
2019-05-23T17:40:25.086Z,101505.83
2019-05-23T17:42:47.687Z,101511.10
2019-05-23T17:45:18.382Z,101518.29
2019-05-23T17:47:48.540Z,101518.23
2019-05-23T17:50:18.224Z,101516.23
2019-05-23T17:52:47.905Z,101514.59
2019-05-23T17:55:17.337Z,101509.53
2019-05-23T17:57:47.112Z,101504.75
2019-05-23T18:00:21.345Z,101507.08
2019-05-23T18:02:51.270Z,101501.25
2019-05-23T18:05:21.417Z,101506.02
2019-05-23T18:07:51.003Z,101503.24
2019-05-23T18:10:20.653Z,101501.13
2019-05-23T18:12:50.294Z,101498.91
2019-05-23T18:15:19.955Z,101498.84
2019-05-23T18:17:49.652Z,101494.84
2019-05-23T18:20:19.158Z,101489.27
2019-05-23T18:22:48.747Z,101491.49
2019-05-23T18:25:18.466Z,101489.42
2019-05-23T18:27:48.108Z,101488.29
2019-05-23T18:30:29.023Z,101486.56
2019-05-23T18:32:58.461Z,101483.16
2019-05-23T18:35:28.788Z,101483.43
2019-05-23T18:37:58.477Z,101483.35
2019-05-23T18:40:29.159Z,101478.45
2019-05-23T18:42:58.636Z,101478.71
2019-05-23T18:45:29.880Z,101478.21
2019-05-23T18:47:59.508Z,101480.87
2019-05-23T18:50:31.008Z,101477.53
2019-05-23T18:53:01.296Z,101477.82
2019-05-23T18:55:31.159Z,101472.95
2019-05-23T18:58:00.786Z,101470.88
2019-05-23T19:01:09.741Z,101474.75
2019-05-23T19:03:39.807Z,101474.58
2019-05-23T19:06:09.304Z,101475.28
2019-05-23T19:08:39.145Z,101480.03
2019-05-23T19:11:20.063Z,101476.60
2019-05-23T19:13:40.202Z,101477.64
2019-05-23T19:16:09.656Z,101478.06
2019-05-23T19:18:39.266Z,101474.11
2019-05-23T19:21:10.267Z,101474.16
2019-05-23T19:23:40.955Z,101478.42
2019-05-23T19:26:10.906Z,101485.23
2019-05-23T19:28:40.639Z,101478.14
2019-05-23T19:31:10.627Z,101478.32
2019-05-23T19:33:40.653Z,101483.77
2019-05-23T19:36:11.997Z,101479.23
2019-05-23T19:38:41.641Z,101474.50
2019-05-23T19:41:12.581Z,101476.03
2019-05-23T19:43:42.463Z,101475.86
2019-05-23T19:46:12.401Z,101480.34
2019-05-23T19:48:42.796Z,101481.72
2019-05-23T19:51:12.372Z,101477.11
2019-05-23T19:53:42.391Z,101477.38
2019-05-23T19:56:11.930Z,101477.03
2019-05-23T19:58:42.318Z,101483.57
2019-05-23T20:01:12.359Z,101475.70
2019-05-23T20:03:41.872Z,101476.00
2019-05-23T20:06:11.573Z,101474.13
2019-05-23T20:08:41.495Z,101466.78
2019-05-23T20:11:11.338Z,101468.05
2019-05-23T20:13:40.866Z,101469.91
2019-05-23T20:16:11.022Z,101470.90
2019-05-23T20:18:40.752Z,101471.31
2019-05-23T20:21:10.490Z,101469.38
2019-05-23T20:23:39.998Z,101467.42
2019-05-23T20:26:09.521Z,101471.36
2019-05-23T20:28:40.316Z,101471.23
2019-05-23T20:31:10.329Z,101469.52
2019-05-23T20:33:39.999Z,101468.31
2019-05-23T20:36:12.735Z,101476.67
2019-05-23T20:38:42.648Z,101471.77
2019-05-23T20:41:12.528Z,101471.90
2019-05-23T20:43:42.015Z,101474.13
2019-05-23T20:46:11.904Z,101470.82
2019-05-23T20:48:41.451Z,101467.96
2019-05-23T20:51:13.500Z,101471.53
2019-05-23T20:53:43.920Z,101465.14
2019-05-23T20:56:13.770Z,101464.89
2019-05-23T20:58:43.196Z,101465.28
2019-05-23T21:01:21.132Z,101460.75
2019-05-23T21:03:51.934Z,101456.70
2019-05-23T21:06:21.338Z,101456.06
2019-05-23T21:08:50.844Z,101459.15
2019-05-23T21:11:20.515Z,101458.28
2019-05-23T21:13:49.987Z,101456.93
2019-05-23T21:16:19.630Z,101455.84
2019-05-23T21:18:50.298Z,101456.32
2019-05-23T21:21:20.038Z,101453.87
2019-05-23T21:23:49.845Z,101448.36
2019-05-23T21:26:19.395Z,101449.83
2019-05-23T21:28:49.034Z,101448.09
2019-05-23T21:31:22.153Z,101450.78
2019-05-23T21:33:51.592Z,101450.66
2019-05-23T21:36:21.111Z,101447.48
2019-05-23T21:38:51.279Z,101447.86
2019-05-23T21:41:20.883Z,101448.20
2019-05-23T21:43:52.449Z,101444.54
2019-05-23T21:46:22.053Z,101440.48
2019-05-23T21:48:51.585Z,101440.36
2019-05-23T21:51:21.038Z,101443.05
2019-05-23T21:53:50.534Z,101439.75
2019-05-23T21:56:19.991Z,101441.14
2019-05-23T21:58:50.184Z,101440.43
2019-05-23T22:01:41.255Z,101445.56
2019-05-23T22:04:29.673Z,101440.52
2019-05-23T22:07:04.340Z,101439.05
2019-05-23T22:09:34.670Z,101440.14
2019-05-23T22:12:06.931Z,101437.30
2019-05-23T22:14:36.643Z,101433.99
2019-05-23T22:17:06.017Z,101440.83
2019-05-23T22:19:35.419Z,101448.77
2019-05-23T22:22:05.301Z,101455.36
2019-05-23T22:24:34.745Z,101457.55
2019-05-23T22:27:06.634Z,101459.50
2019-05-23T22:29:36.210Z,101453.67
2019-05-23T22:32:07.276Z,101454.53
2019-05-23T22:34:44.886Z,101449.12
2019-05-23T22:37:16.919Z,101449.12
2019-05-23T22:39:46.321Z,101451.16
2019-05-23T22:42:15.817Z,101454.25
2019-05-23T22:44:45.402Z,101447.39
2019-05-23T22:47:14.784Z,101444.91
2019-05-23T22:49:44.367Z,101440.52
2019-05-23T22:52:13.822Z,101443.20
2019-05-23T22:54:43.227Z,101441.50
2019-05-23T22:57:12.672Z,101439.86
2019-05-23T22:59:42.327Z,101440.70
2019-05-23T23:02:15.190Z,101440.27
2019-05-23T23:04:44.774Z,101437.82
2019-05-23T23:07:15.715Z,101438.50
2019-05-23T23:09:45.548Z,101434.91
2019-05-23T23:12:15.230Z,101438.31
2019-05-23T23:14:44.926Z,101434.00
2019-05-23T23:17:15.020Z,101432.86
2019-05-23T23:19:44.548Z,101430.13
2019-05-23T23:22:14.984Z,101433.53
2019-05-23T23:24:44.460Z,101433.53
2019-05-23T23:27:13.947Z,101432.34
2019-05-23T23:29:43.686Z,101432.09
2019-05-23T23:32:13.199Z,101428.38
2019-05-23T23:34:42.728Z,101434.35
2019-05-23T23:37:12.534Z,101430.59
2019-05-23T23:39:42.041Z,101431.89
2019-05-23T23:42:11.632Z,101434.19
2019-05-23T23:44:40.249Z,101424.89
2019-05-23T23:47:27.489Z,101429.59
2019-05-23T23:50:14.933Z,101429.23
2019-05-23T23:53:02.198Z,101420.30
2019-05-23T23:55:49.496Z,101421.33
2019-05-23T23:58:17.924Z,101423.62
